sensor_id;sensor_type;location;lat;lon;timestamp;P1;durP1;ratioP1;P2;durP2;ratioP2
13847;SDS011;6994;49.752;6.094;2023-07-31T00:01:49;4.87;;;1.70;;
13847;SDS011;6994;49.752;6.094;2023-07-31T00:04:16;4.18;;;2.10;;
13847;SDS011;6994;49.752;6.094;2023-07-31T00:06:44;6.57;;;2.72;;
13847;SDS011;6994;49.752;6.094;2023-07-31T00:09:11;3.47;;;2.00;;
13847;SDS011;6994;49.752;6.094;2023-07-31T00:11:38;4.43;;;1.40;;
13847;SDS011;6994;49.752;6.094;2023-07-31T00:14:05;2.22;;;1.25;;
13847;SDS011;6994;49.752;6.094;2023-07-31T00:16:32;4.30;;;1.20;;
13847;SDS011;6994;49.752;6.094;2023-07-31T00:19:00;1.98;;;1.77;;
13847;SDS011;6994;49.752;6.094;2023-07-31T00:21:28;5.57;;;1.40;;
13847;SDS011;6994;49.752;6.094;2023-07-31T00:23:56;2.08;;;1.67;;
13847;SDS011;6994;49.752;6.094;2023-07-31T00:26:23;4.60;;;2.20;;
13847;SDS011;6994;49.752;6.094;2023-07-31T00:28:51;2.55;;;1.55;;
13847;SDS011;6994;49.752;6.094;2023-07-31T00:31:18;4.07;;;1.75;;
13847;SDS011;6994;49.752;6.094;2023-07-31T00:33:46;2.92;;;1.50;;
13847;SDS011;6994;49.752;6.094;2023-07-31T00:36:13;6.20;;;2.28;;
13847;SDS011;6994;49.752;6.094;2023-07-31T00:38:40;5.60;;;1.40;;
13847;SDS011;6994;49.752;6.094;2023-07-31T00:41:07;2.90;;;1.80;;
13847;SDS011;6994;49.752;6.094;2023-07-31T00:43:35;2.20;;;1.52;;
13847;SDS011;6994;49.752;6.094;2023-07-31T00:46:02;2.50;;;1.77;;
13847;SDS011;6994;49.752;6.094;2023-07-31T00:48:29;2.87;;;1.80;;
13847;SDS011;6994;49.752;6.094;2023-07-31T00:50:56;4.60;;;1.55;;
13847;SDS011;6994;49.752;6.094;2023-07-31T00:53:24;4.32;;;1.60;;
13847;SDS011;6994;49.752;6.094;2023-07-31T00:55:51;2.65;;;1.62;;
13847;SDS011;6994;49.752;6.094;2023-07-31T00:58:19;2.40;;;1.62;;
13847;SDS011;6994;49.752;6.094;2023-07-31T01:00:47;3.80;;;1.50;;
13847;SDS011;6994;49.752;6.094;2023-07-31T01:03:15;2.67;;;1.45;;
13847;SDS011;6994;49.752;6.094;2023-07-31T01:05:44;4.40;;;1.85;;
13847;SDS011;6994;49.752;6.094;2023-07-31T01:08:17;8.45;;;1.65;;
13847;SDS011;6994;49.752;6.094;2023-07-31T01:10:48;2.80;;;1.73;;
13847;SDS011;6994;49.752;6.094;2023-07-31T01:13:13;4.18;;;1.70;;
13847;SDS011;6994;49.752;6.094;2023-07-31T01:15:40;4.37;;;1.37;;
13847;SDS011;6994;49.752;6.094;2023-07-31T01:18:08;5.53;;;2.12;;
13847;SDS011;6994;49.752;6.094;2023-07-31T01:20:35;1.98;;;1.77;;
13847;SDS011;6994;49.752;6.094;2023-07-31T01:28:39;3.40;;;1.90;;
13847;SDS011;6994;49.752;6.094;2023-07-31T01:31:20;2.53;;;1.62;;
13847;SDS011;6994;49.752;6.094;2023-07-31T01:33:45;2.10;;;1.52;;
13847;SDS011;6994;49.752;6.094;2023-07-31T01:36:13;3.80;;;1.70;;
13847;SDS011;6994;49.752;6.094;2023-07-31T01:38:40;4.07;;;1.65;;
13847;SDS011;6994;49.752;6.094;2023-07-31T01:41:07;3.10;;;1.45;;
13847;SDS011;6994;49.752;6.094;2023-07-31T01:43:34;2.78;;;1.55;;
13847;SDS011;6994;49.752;6.094;2023-07-31T01:46:01;5.15;;;1.55;;
13847;SDS011;6994;49.752;6.094;2023-07-31T01:48:29;5.20;;;1.90;;
13847;SDS011;6994;49.752;6.094;2023-07-31T01:50:56;3.12;;;1.60;;
13847;SDS011;6994;49.752;6.094;2023-07-31T01:53:23;6.50;;;2.08;;
13847;SDS011;6994;49.752;6.094;2023-07-31T01:55:50;4.43;;;1.62;;
13847;SDS011;6994;49.752;6.094;2023-07-31T01:58:18;6.22;;;1.90;;
13847;SDS011;6994;49.752;6.094;2023-07-31T02:00:45;6.10;;;1.52;;
13847;SDS011;6994;49.752;6.094;2023-07-31T02:03:12;2.33;;;1.33;;
13847;SDS011;6994;49.752;6.094;2023-07-31T02:05:45;3.33;;;1.85;;
13847;SDS011;6994;49.752;6.094;2023-07-31T02:08:12;3.15;;;1.83;;
13847;SDS011;6994;49.752;6.094;2023-07-31T02:10:39;3.22;;;1.40;;
13847;SDS011;6994;49.752;6.094;2023-07-31T02:13:07;3.25;;;1.62;;
13847;SDS011;6994;49.752;6.094;2023-07-31T02:15:34;4.00;;;1.50;;
13847;SDS011;6994;49.752;6.094;2023-07-31T02:18:01;2.05;;;1.40;;
13847;SDS011;6994;49.752;6.094;2023-07-31T02:20:29;1.80;;;1.50;;
13847;SDS011;6994;49.752;6.094;2023-07-31T02:22:57;4.00;;;1.80;;
13847;SDS011;6994;49.752;6.094;2023-07-31T02:25:25;5.62;;;2.00;;
13847;SDS011;6994;49.752;6.094;2023-07-31T02:27:53;5.28;;;1.67;;
13847;SDS011;6994;49.752;6.094;2023-07-31T02:30:21;3.72;;;1.90;;
13847;SDS011;6994;49.752;6.094;2023-07-31T02:32:48;6.72;;;1.80;;
13847;SDS011;6994;49.752;6.094;2023-07-31T02:35:15;2.15;;;1.35;;
13847;SDS011;6994;49.752;6.094;2023-07-31T02:37:43;4.35;;;2.37;;
13847;SDS011;6994;49.752;6.094;2023-07-31T02:40:10;5.53;;;2.03;;
13847;SDS011;6994;49.752;6.094;2023-07-31T02:42:37;4.93;;;2.20;;
13847;SDS011;6994;49.752;6.094;2023-07-31T02:45:05;5.70;;;2.08;;
13847;SDS011;6994;49.752;6.094;2023-07-31T02:47:32;3.40;;;1.52;;
13847;SDS011;6994;49.752;6.094;2023-07-31T02:50:00;6.40;;;1.70;;
13847;SDS011;6994;49.752;6.094;2023-07-31T02:52:27;4.82;;;1.98;;
13847;SDS011;6994;49.752;6.094;2023-07-31T02:54:54;3.33;;;2.00;;
13847;SDS011;6994;49.752;6.094;2023-07-31T02:57:22;4.95;;;1.85;;
13847;SDS011;6994;49.752;6.094;2023-07-31T02:59:49;2.95;;;1.92;;
13847;SDS011;6994;49.752;6.094;2023-07-31T03:02:16;2.85;;;2.00;;
13847;SDS011;6994;49.752;6.094;2023-07-31T03:04:44;5.32;;;2.03;;
13847;SDS011;6994;49.752;6.094;2023-07-31T03:07:11;3.28;;;2.10;;
13847;SDS011;6994;49.752;6.094;2023-07-31T03:09:38;5.62;;;2.42;;
13847;SDS011;6994;49.752;6.094;2023-07-31T03:12:05;4.25;;;1.60;;
13847;SDS011;6994;49.752;6.094;2023-07-31T03:14:32;3.33;;;1.90;;
13847;SDS011;6994;49.752;6.094;2023-07-31T03:17:00;3.58;;;1.80;;
13847;SDS011;6994;49.752;6.094;2023-07-31T03:19:29;3.28;;;1.80;;
13847;SDS011;6994;49.752;6.094;2023-07-31T03:21:54;3.62;;;2.20;;
13847;SDS011;6994;49.752;6.094;2023-07-31T03:24:21;3.85;;;1.95;;
13847;SDS011;6994;49.752;6.094;2023-07-31T03:26:48;4.47;;;2.05;;
13847;SDS011;6994;49.752;6.094;2023-07-31T03:29:16;4.90;;;2.22;;
13847;SDS011;6994;49.752;6.094;2023-07-31T03:31:43;3.30;;;1.83;;
13847;SDS011;6994;49.752;6.094;2023-07-31T03:34:10;4.43;;;1.83;;
13847;SDS011;6994;49.752;6.094;2023-07-31T03:36:37;4.00;;;1.70;;
13847;SDS011;6994;49.752;6.094;2023-07-31T03:39:05;5.37;;;1.95;;
13847;SDS011;6994;49.752;6.094;2023-07-31T03:41:32;4.12;;;2.17;;
13847;SDS011;6994;49.752;6.094;2023-07-31T03:44:00;4.60;;;2.28;;
13847;SDS011;6994;49.752;6.094;2023-07-31T03:46:27;9.15;;;2.30;;
13847;SDS011;6994;49.752;6.094;2023-07-31T03:48:54;6.55;;;2.10;;
13847;SDS011;6994;49.752;6.094;2023-07-31T03:51:21;3.97;;;2.47;;
13847;SDS011;6994;49.752;6.094;2023-07-31T03:53:48;7.35;;;2.17;;
13847;SDS011;6994;49.752;6.094;2023-07-31T03:56:16;4.80;;;2.92;;
13847;SDS011;6994;49.752;6.094;2023-07-31T03:58:43;2.97;;;2.10;;
13847;SDS011;6994;49.752;6.094;2023-07-31T04:01:10;5.85;;;3.05;;
13847;SDS011;6994;49.752;6.094;2023-07-31T04:03:37;2.95;;;2.05;;
13847;SDS011;6994;49.752;6.094;2023-07-31T04:06:04;3.60;;;1.75;;
13847;SDS011;6994;49.752;6.094;2023-07-31T04:08:32;4.07;;;1.95;;
13847;SDS011;6994;49.752;6.094;2023-07-31T04:11:00;3.65;;;2.00;;
13847;SDS011;6994;49.752;6.094;2023-07-31T04:13:29;7.45;;;2.20;;
13847;SDS011;6994;49.752;6.094;2023-07-31T04:15:56;3.58;;;1.87;;
13847;SDS011;6994;49.752;6.094;2023-07-31T04:18:24;8.57;;;2.87;;
13847;SDS011;6994;49.752;6.094;2023-07-31T04:20:50;3.42;;;2.17;;
13847;SDS011;6994;49.752;6.094;2023-07-31T04:23:17;6.28;;;2.58;;
13847;SDS011;6994;49.752;6.094;2023-07-31T04:25:44;5.55;;;1.80;;
13847;SDS011;6994;49.752;6.094;2023-07-31T04:28:12;4.85;;;2.50;;
13847;SDS011;6994;49.752;6.094;2023-07-31T04:30:39;5.12;;;1.92;;
13847;SDS011;6994;49.752;6.094;2023-07-31T04:33:06;4.30;;;2.37;;
13847;SDS011;6994;49.752;6.094;2023-07-31T04:35:33;3.58;;;1.80;;
13847;SDS011;6994;49.752;6.094;2023-07-31T04:38:00;3.22;;;2.33;;
13847;SDS011;6994;49.752;6.094;2023-07-31T04:40:28;5.37;;;2.15;;
13847;SDS011;6994;49.752;6.094;2023-07-31T04:42:56;3.55;;;1.92;;
13847;SDS011;6994;49.752;6.094;2023-07-31T04:45:23;4.05;;;1.85;;
13847;SDS011;6994;49.752;6.094;2023-07-31T04:47:50;4.80;;;2.40;;
13847;SDS011;6994;49.752;6.094;2023-07-31T04:50:18;2.92;;;2.22;;
13847;SDS011;6994;49.752;6.094;2023-07-31T04:52:46;3.80;;;2.22;;
13847;SDS011;6994;49.752;6.094;2023-07-31T04:55:13;4.03;;;2.30;;
13847;SDS011;6994;49.752;6.094;2023-07-31T04:57:40;4.80;;;2.10;;
13847;SDS011;6994;49.752;6.094;2023-07-31T05:00:08;4.65;;;2.25;;
13847;SDS011;6994;49.752;6.094;2023-07-31T05:02:35;3.80;;;2.03;;
13847;SDS011;6994;49.752;6.094;2023-07-31T05:05:02;4.47;;;1.55;;
13847;SDS011;6994;49.752;6.094;2023-07-31T05:07:29;4.07;;;2.00;;
13847;SDS011;6994;49.752;6.094;2023-07-31T05:09:57;5.07;;;2.50;;
13847;SDS011;6994;49.752;6.094;2023-07-31T05:12:24;3.87;;;1.73;;
13847;SDS011;6994;49.752;6.094;2023-07-31T05:14:52;3.95;;;1.85;;
13847;SDS011;6994;49.752;6.094;2023-07-31T05:17:19;3.85;;;2.10;;
13847;SDS011;6994;49.752;6.094;2023-07-31T05:19:46;5.75;;;2.20;;
13847;SDS011;6994;49.752;6.094;2023-07-31T05:22:13;4.72;;;1.85;;
13847;SDS011;6994;49.752;6.094;2023-07-31T05:24:40;3.17;;;1.80;;
13847;SDS011;6994;49.752;6.094;2023-07-31T05:27:08;2.58;;;1.75;;
13847;SDS011;6994;49.752;6.094;2023-07-31T05:29:35;3.92;;;1.90;;
13847;SDS011;6994;49.752;6.094;2023-07-31T05:32:02;6.57;;;2.05;;
13847;SDS011;6994;49.752;6.094;2023-07-31T05:34:29;6.15;;;2.22;;
13847;SDS011;6994;49.752;6.094;2023-07-31T05:36:57;6.93;;;2.08;;
13847;SDS011;6994;49.752;6.094;2023-07-31T05:39:25;3.80;;;1.80;;
13847;SDS011;6994;49.752;6.094;2023-07-31T05:41:52;3.28;;;1.80;;
13847;SDS011;6994;49.752;6.094;2023-07-31T05:44:20;4.60;;;1.95;;
13847;SDS011;6994;49.752;6.094;2023-07-31T05:46:47;5.87;;;1.90;;
13847;SDS011;6994;49.752;6.094;2023-07-31T05:49:14;3.45;;;1.50;;
13847;SDS011;6994;49.752;6.094;2023-07-31T05:51:41;4.25;;;1.77;;
13847;SDS011;6994;49.752;6.094;2023-07-31T05:54:08;4.62;;;1.90;;
13847;SDS011;6994;49.752;6.094;2023-07-31T05:56:36;4.00;;;1.77;;
13847;SDS011;6994;49.752;6.094;2023-07-31T05:59:03;4.00;;;2.15;;
13847;SDS011;6994;49.752;6.094;2023-07-31T06:01:30;3.65;;;2.10;;
13847;SDS011;6994;49.752;6.094;2023-07-31T06:03:58;2.97;;;2.03;;
13847;SDS011;6994;49.752;6.094;2023-07-31T06:06:26;4.18;;;1.70;;
13847;SDS011;6994;49.752;6.094;2023-07-31T06:08:54;4.45;;;2.25;;
13847;SDS011;6994;49.752;6.094;2023-07-31T06:11:22;5.57;;;2.42;;
13847;SDS011;6994;49.752;6.094;2023-07-31T06:13:49;4.22;;;1.80;;
13847;SDS011;6994;49.752;6.094;2023-07-31T06:16:16;4.18;;;2.28;;
13847;SDS011;6994;49.752;6.094;2023-07-31T06:18:44;4.00;;;2.15;;
13847;SDS011;6994;49.752;6.094;2023-07-31T06:21:11;3.78;;;1.95;;
13847;SDS011;6994;49.752;6.094;2023-07-31T06:23:38;4.30;;;2.62;;
13847;SDS011;6994;49.752;6.094;2023-07-31T06:26:05;4.55;;;2.10;;
13847;SDS011;6994;49.752;6.094;2023-07-31T06:28:32;5.62;;;2.67;;
13847;SDS011;6994;49.752;6.094;2023-07-31T06:31:00;4.95;;;2.05;;
13847;SDS011;6994;49.752;6.094;2023-07-31T06:33:27;6.57;;;2.55;;
13847;SDS011;6994;49.752;6.094;2023-07-31T06:35:54;6.57;;;1.98;;
13847;SDS011;6994;49.752;6.094;2023-07-31T06:38:25;7.50;;;2.17;;
13847;SDS011;6994;49.752;6.094;2023-07-31T06:40:52;3.87;;;1.90;;
13847;SDS011;6994;49.752;6.094;2023-07-31T06:43:20;5.57;;;1.85;;
13847;SDS011;6994;49.752;6.094;2023-07-31T06:45:48;4.35;;;1.95;;
13847;SDS011;6994;49.752;6.094;2023-07-31T06:48:15;4.37;;;2.03;;
13847;SDS011;6994;49.752;6.094;2023-07-31T06:50:42;5.65;;;2.05;;
13847;SDS011;6994;49.752;6.094;2023-07-31T06:53:10;5.00;;;2.42;;
13847;SDS011;6994;49.752;6.094;2023-07-31T06:55:37;5.03;;;2.10;;
13847;SDS011;6994;49.752;6.094;2023-07-31T06:58:04;4.12;;;2.03;;
13847;SDS011;6994;49.752;6.094;2023-07-31T07:00:31;4.35;;;1.65;;
13847;SDS011;6994;49.752;6.094;2023-07-31T07:02:58;5.15;;;1.65;;
13847;SDS011;6994;49.752;6.094;2023-07-31T07:05:26;4.65;;;2.05;;
13847;SDS011;6994;49.752;6.094;2023-07-31T07:07:53;4.62;;;2.10;;
13847;SDS011;6994;49.752;6.094;2023-07-31T07:10:20;3.60;;;1.80;;
13847;SDS011;6994;49.752;6.094;2023-07-31T07:12:47;5.82;;;2.53;;
13847;SDS011;6994;49.752;6.094;2023-07-31T07:15:15;6.40;;;2.60;;
13847;SDS011;6994;49.752;6.094;2023-07-31T07:17:42;3.30;;;1.58;;
13847;SDS011;6994;49.752;6.094;2023-07-31T07:20:10;4.50;;;2.10;;
13847;SDS011;6994;49.752;6.094;2023-07-31T07:22:37;4.43;;;2.03;;
13847;SDS011;6994;49.752;6.094;2023-07-31T07:25:04;5.07;;;2.50;;
13847;SDS011;6994;49.752;6.094;2023-07-31T07:27:31;5.03;;;2.50;;
13847;SDS011;6994;49.752;6.094;2023-07-31T07:29:58;4.55;;;1.83;;
13847;SDS011;6994;49.752;6.094;2023-07-31T07:32:26;4.55;;;2.53;;
13847;SDS011;6994;49.752;6.094;2023-07-31T07:34:53;4.30;;;2.37;;
13847;SDS011;6994;49.752;6.094;2023-07-31T07:37:20;2.75;;;1.92;;
13847;SDS011;6994;49.752;6.094;2023-07-31T07:39:47;5.43;;;1.77;;
13847;SDS011;6994;49.752;6.094;2023-07-31T07:42:14;3.60;;;1.70;;
13847;SDS011;6994;49.752;6.094;2023-07-31T07:44:42;6.28;;;1.70;;
13847;SDS011;6994;49.752;6.094;2023-07-31T07:47:10;4.78;;;2.17;;
13847;SDS011;6994;49.752;6.094;2023-07-31T07:49:38;5.40;;;2.17;;
13847;SDS011;6994;49.752;6.094;2023-07-31T07:52:05;3.42;;;1.83;;
13847;SDS011;6994;49.752;6.094;2023-07-31T07:54:32;3.37;;;1.65;;
13847;SDS011;6994;49.752;6.094;2023-07-31T07:56:59;3.00;;;1.55;;
13847;SDS011;6994;49.752;6.094;2023-07-31T07:59:26;4.28;;;1.92;;
13847;SDS011;6994;49.752;6.094;2023-07-31T08:01:54;4.93;;;2.05;;
13847;SDS011;6994;49.752;6.094;2023-07-31T08:04:21;2.37;;;1.52;;
13847;SDS011;6994;49.752;6.094;2023-07-31T08:06:48;2.17;;;1.65;;
13847;SDS011;6994;49.752;6.094;2023-07-31T08:09:15;4.40;;;1.52;;
13847;SDS011;6994;49.752;6.094;2023-07-31T08:11:42;2.85;;;1.70;;
13847;SDS011;6994;49.752;6.094;2023-07-31T08:14:10;2.42;;;1.75;;
13847;SDS011;6994;49.752;6.094;2023-07-31T08:16:37;5.00;;;1.70;;
13847;SDS011;6994;49.752;6.094;2023-07-31T08:19:04;1.80;;;1.48;;
13847;SDS011;6994;49.752;6.094;2023-07-31T08:21:31;3.28;;;1.42;;
13847;SDS011;6994;49.752;6.094;2023-07-31T08:23:59;2.17;;;1.27;;
13847;SDS011;6994;49.752;6.094;2023-07-31T08:26:27;4.70;;;1.77;;
13847;SDS011;6994;49.752;6.094;2023-07-31T08:28:55;2.53;;;1.52;;
13847;SDS011;6994;49.752;6.094;2023-07-31T08:31:23;2.00;;;1.70;;
13847;SDS011;6994;49.752;6.094;2023-07-31T08:33:51;3.37;;;1.60;;
13847;SDS011;6994;49.752;6.094;2023-07-31T08:36:18;2.70;;;1.48;;
13847;SDS011;6994;49.752;6.094;2023-07-31T08:38:46;3.78;;;2.00;;
13847;SDS011;6994;49.752;6.094;2023-07-31T08:41:13;1.65;;;1.25;;
13847;SDS011;6994;49.752;6.094;2023-07-31T08:43:40;3.03;;;1.45;;
13847;SDS011;6994;49.752;6.094;2023-07-31T08:46:07;2.53;;;1.35;;
13847;SDS011;6994;49.752;6.094;2023-07-31T08:48:34;3.12;;;2.05;;
13847;SDS011;6994;49.752;6.094;2023-07-31T08:51:02;2.15;;;1.30;;
13847;SDS011;6994;49.752;6.094;2023-07-31T08:53:29;2.25;;;1.10;;
13847;SDS011;6994;49.752;6.094;2023-07-31T08:55:56;1.67;;;1.27;;
13847;SDS011;6994;49.752;6.094;2023-07-31T08:58:24;1.83;;;1.58;;
13847;SDS011;6994;49.752;6.094;2023-07-31T09:00:51;2.87;;;1.50;;
13847;SDS011;6994;49.752;6.094;2023-07-31T09:03:18;5.00;;;1.70;;
13847;SDS011;6994;49.752;6.094;2023-07-31T09:05:46;1.52;;;1.30;;
13847;SDS011;6994;49.752;6.094;2023-07-31T09:08:13;2.42;;;1.27;;
13847;SDS011;6994;49.752;6.094;2023-07-31T09:10:43;1.55;;;1.30;;
13847;SDS011;6994;49.752;6.094;2023-07-31T09:13:10;2.15;;;1.25;;
13847;SDS011;6994;49.752;6.094;2023-07-31T09:15:37;1.67;;;1.20;;
13847;SDS011;6994;49.752;6.094;2023-07-31T09:18:05;2.50;;;1.48;;
13847;SDS011;6994;49.752;6.094;2023-07-31T09:20:32;1.77;;;1.33;;
13847;SDS011;6994;49.752;6.094;2023-07-31T09:23:05;2.10;;;1.48;;
13847;SDS011;6994;49.752;6.094;2023-07-31T09:25:32;1.90;;;1.62;;
13847;SDS011;6994;49.752;6.094;2023-07-31T09:28:06;1.80;;;1.15;;
13847;SDS011;6994;49.752;6.094;2023-07-31T09:30:43;3.53;;;1.10;;
13847;SDS011;6994;49.752;6.094;2023-07-31T09:33:03;2.15;;;1.45;;
13847;SDS011;6994;49.752;6.094;2023-07-31T09:35:30;2.33;;;1.65;;
13847;SDS011;6994;49.752;6.094;2023-07-31T09:37:58;3.45;;;1.50;;
13847;SDS011;6994;49.752;6.094;2023-07-31T09:42:55;1.30;;;1.15;;
13847;SDS011;6994;49.752;6.094;2023-07-31T09:45:27;2.40;;;1.10;;
13847;SDS011;6994;49.752;6.094;2023-07-31T09:47:54;2.50;;;1.40;;
13847;SDS011;6994;49.752;6.094;2023-07-31T09:50:22;1.70;;;1.20;;
13847;SDS011;6994;49.752;6.094;2023-07-31T09:52:48;1.75;;;1.30;;
13847;SDS011;6994;49.752;6.094;2023-07-31T09:55:15;1.70;;;1.12;;
13847;SDS011;6994;49.752;6.094;2023-07-31T09:57:44;1.98;;;1.37;;
13847;SDS011;6994;49.752;6.094;2023-07-31T10:00:17;1.85;;;1.20;;
13847;SDS011;6994;49.752;6.094;2023-07-31T10:02:46;2.83;;;1.40;;
13847;SDS011;6994;49.752;6.094;2023-07-31T10:05:14;2.45;;;1.27;;
13847;SDS011;6994;49.752;6.094;2023-07-31T10:07:41;1.62;;;1.37;;
13847;SDS011;6994;49.752;6.094;2023-07-31T10:10:07;1.92;;;1.17;;
13847;SDS011;6994;49.752;6.094;2023-07-31T10:12:34;2.70;;;1.95;;
13847;SDS011;6994;49.752;6.094;2023-07-31T10:15:02;2.15;;;1.33;;
13847;SDS011;6994;49.752;6.094;2023-07-31T10:17:29;1.45;;;1.08;;
13847;SDS011;6994;49.752;6.094;2023-07-31T10:19:58;2.87;;;1.65;;
13847;SDS011;6994;49.752;6.094;2023-07-31T10:22:26;2.22;;;1.40;;
13847;SDS011;6994;49.752;6.094;2023-07-31T10:24:54;3.40;;;1.65;;
13847;SDS011;6994;49.752;6.094;2023-07-31T10:27:20;1.60;;;1.35;;
13847;SDS011;6994;49.752;6.094;2023-07-31T10:29:48;1.87;;;1.50;;
13847;SDS011;6994;49.752;6.094;2023-07-31T10:32:15;3.83;;;1.10;;
13847;SDS011;6994;49.752;6.094;2023-07-31T10:34:42;1.50;;;1.25;;
13847;SDS011;6994;49.752;6.094;2023-07-31T10:37:25;2.70;;;1.55;;
13847;SDS011;6994;49.752;6.094;2023-07-31T10:42:29;3.23;;;1.80;;
13847;SDS011;6994;49.752;6.094;2023-07-31T10:45:05;2.37;;;1.85;;
13847;SDS011;6994;49.752;6.094;2023-07-31T10:47:36;1.75;;;1.20;;
13847;SDS011;6994;49.752;6.094;2023-07-31T10:50:20;2.95;;;1.30;;
13847;SDS011;6994;49.752;6.094;2023-07-31T10:52:47;2.00;;;1.37;;
13847;SDS011;6994;49.752;6.094;2023-07-31T10:55:27;2.87;;;1.48;;
13847;SDS011;6994;49.752;6.094;2023-07-31T10:58:06;1.55;;;1.40;;
13847;SDS011;6994;49.752;6.094;2023-07-31T11:00:44;2.25;;;1.27;;
13847;SDS011;6994;49.752;6.094;2023-07-31T11:03:13;2.53;;;1.87;;
13847;SDS011;6994;49.752;6.094;2023-07-31T11:08:28;4.10;;;1.60;;
13847;SDS011;6994;49.752;6.094;2023-07-31T11:13:39;3.47;;;1.92;;
13847;SDS011;6994;49.752;6.094;2023-07-31T11:16:01;3.58;;;1.95;;
13847;SDS011;6994;49.752;6.094;2023-07-31T11:18:29;3.75;;;1.87;;
13847;SDS011;6994;49.752;6.094;2023-07-31T11:20:56;2.17;;;1.50;;
13847;SDS011;6994;49.752;6.094;2023-07-31T11:23:23;3.20;;;1.48;;
13847;SDS011;6994;49.752;6.094;2023-07-31T11:25:50;1.60;;;1.50;;
13847;SDS011;6994;49.752;6.094;2023-07-31T11:28:18;3.67;;;2.10;;
13847;SDS011;6994;49.752;6.094;2023-07-31T11:30:45;4.28;;;1.95;;
13847;SDS011;6994;49.752;6.094;2023-07-31T11:33:12;2.30;;;1.70;;
13847;SDS011;6994;49.752;6.094;2023-07-31T11:35:43;3.35;;;1.83;;
13847;SDS011;6994;49.752;6.094;2023-07-31T11:38:09;4.72;;;1.60;;
13847;SDS011;6994;49.752;6.094;2023-07-31T11:40:42;3.42;;;2.20;;
13847;SDS011;6994;49.752;6.094;2023-07-31T11:43:10;2.60;;;1.60;;
13847;SDS011;6994;49.752;6.094;2023-07-31T11:45:37;5.72;;;2.05;;
13847;SDS011;6994;49.752;6.094;2023-07-31T11:48:04;3.10;;;1.52;;
13847;SDS011;6994;49.752;6.094;2023-07-31T11:50:33;2.40;;;1.55;;
13847;SDS011;6994;49.752;6.094;2023-07-31T11:53:00;2.25;;;1.58;;
13847;SDS011;6994;49.752;6.094;2023-07-31T11:55:27;3.85;;;2.08;;
13847;SDS011;6994;49.752;6.094;2023-07-31T11:57:56;4.53;;;1.50;;
13847;SDS011;6994;49.752;6.094;2023-07-31T12:00:21;2.72;;;1.98;;
13847;SDS011;6994;49.752;6.094;2023-07-31T12:02:50;2.35;;;1.65;;
13847;SDS011;6994;49.752;6.094;2023-07-31T12:05:16;4.57;;;1.62;;
13847;SDS011;6994;49.752;6.094;2023-07-31T12:07:47;1.73;;;1.50;;
13847;SDS011;6994;49.752;6.094;2023-07-31T12:10:27;3.35;;;1.75;;
13847;SDS011;6994;49.752;6.094;2023-07-31T12:12:58;2.42;;;1.75;;
13847;SDS011;6994;49.752;6.094;2023-07-31T12:15:45;2.83;;;1.55;;
13847;SDS011;6994;49.752;6.094;2023-07-31T12:18:05;2.12;;;1.45;;
13847;SDS011;6994;49.752;6.094;2023-07-31T12:20:30;3.00;;;1.48;;
13847;SDS011;6994;49.752;6.094;2023-07-31T12:22:57;2.62;;;1.62;;
13847;SDS011;6994;49.752;6.094;2023-07-31T12:25:34;2.12;;;1.70;;
13847;SDS011;6994;49.752;6.094;2023-07-31T12:27:57;2.87;;;1.50;;
13847;SDS011;6994;49.752;6.094;2023-07-31T12:30:33;2.12;;;1.55;;
13847;SDS011;6994;49.752;6.094;2023-07-31T12:33:04;3.90;;;2.03;;
13847;SDS011;6994;49.752;6.094;2023-07-31T12:35:37;4.10;;;2.20;;
13847;SDS011;6994;49.752;6.094;2023-07-31T12:38:03;3.90;;;2.28;;
13847;SDS011;6994;49.752;6.094;2023-07-31T12:40:31;2.22;;;1.80;;
13847;SDS011;6994;49.752;6.094;2023-07-31T12:43:00;4.25;;;1.92;;
13847;SDS011;6994;49.752;6.094;2023-07-31T12:45:25;3.87;;;2.05;;
13847;SDS011;6994;49.752;6.094;2023-07-31T12:47:52;5.12;;;2.30;;
13847;SDS011;6994;49.752;6.094;2023-07-31T12:50:19;4.18;;;2.67;;
13847;SDS011;6994;49.752;6.094;2023-07-31T12:52:47;5.35;;;2.60;;
13847;SDS011;6994;49.752;6.094;2023-07-31T12:55:14;3.67;;;2.15;;
13847;SDS011;6994;49.752;6.094;2023-07-31T12:57:41;5.65;;;2.70;;
13847;SDS011;6994;49.752;6.094;2023-07-31T13:00:08;5.45;;;3.00;;
13847;SDS011;6994;49.752;6.094;2023-07-31T13:02:36;5.57;;;2.72;;
13847;SDS011;6994;49.752;6.094;2023-07-31T13:05:03;4.90;;;2.30;;
13847;SDS011;6994;49.752;6.094;2023-07-31T13:07:30;3.80;;;2.20;;
13847;SDS011;6994;49.752;6.094;2023-07-31T13:09:57;5.57;;;3.17;;
13847;SDS011;6994;49.752;6.094;2023-07-31T13:12:24;4.10;;;2.40;;
13847;SDS011;6994;49.752;6.094;2023-07-31T13:14:52;4.75;;;2.20;;
13847;SDS011;6994;49.752;6.094;2023-07-31T13:17:19;3.70;;;2.50;;
13847;SDS011;6994;49.752;6.094;2023-07-31T13:19:46;6.57;;;2.83;;
13847;SDS011;6994;49.752;6.094;2023-07-31T13:22:14;3.78;;;2.33;;
13847;SDS011;6994;49.752;6.094;2023-07-31T13:24:41;3.03;;;2.42;;
13847;SDS011;6994;49.752;6.094;2023-07-31T13:27:08;24.95;;;8.27;;
13847;SDS011;6994;49.752;6.094;2023-07-31T13:29:36;5.93;;;2.47;;
13847;SDS011;6994;49.752;6.094;2023-07-31T13:32:03;3.83;;;2.10;;
13847;SDS011;6994;49.752;6.094;2023-07-31T13:34:30;6.47;;;3.10;;
13847;SDS011;6994;49.752;6.094;2023-07-31T13:36:58;5.93;;;2.90;;
13847;SDS011;6994;49.752;6.094;2023-07-31T13:39:25;4.28;;;2.65;;
13847;SDS011;6994;49.752;6.094;2023-07-31T13:41:52;5.45;;;2.35;;
13847;SDS011;6994;49.752;6.094;2023-07-31T13:44:20;3.15;;;2.10;;
13847;SDS011;6994;49.752;6.094;2023-07-31T13:46:47;3.42;;;1.98;;
13847;SDS011;6994;49.752;6.094;2023-07-31T13:49:14;3.47;;;2.47;;
13847;SDS011;6994;49.752;6.094;2023-07-31T13:51:41;6.87;;;2.95;;
13847;SDS011;6994;49.752;6.094;2023-07-31T13:54:08;9.43;;;2.40;;
13847;SDS011;6994;49.752;6.094;2023-07-31T13:56:36;4.43;;;2.90;;
13847;SDS011;6994;49.752;6.094;2023-07-31T13:59:03;5.85;;;2.55;;
13847;SDS011;6994;49.752;6.094;2023-07-31T14:01:30;5.80;;;2.78;;
13847;SDS011;6994;49.752;6.094;2023-07-31T14:03:57;5.50;;;2.67;;
13847;SDS011;6994;49.752;6.094;2023-07-31T14:06:25;6.07;;;2.80;;
13847;SDS011;6994;49.752;6.094;2023-07-31T14:08:52;5.35;;;2.90;;
13847;SDS011;6994;49.752;6.094;2023-07-31T14:11:20;5.22;;;3.20;;
13847;SDS011;6994;49.752;6.094;2023-07-31T14:13:47;5.18;;;3.12;;
13847;SDS011;6994;49.752;6.094;2023-07-31T14:16:14;6.60;;;3.17;;
13847;SDS011;6994;49.752;6.094;2023-07-31T14:18:41;10.90;;;3.35;;
13847;SDS011;6994;49.752;6.094;2023-07-31T14:21:08;8.48;;;3.20;;
13847;SDS011;6994;49.752;6.094;2023-07-31T14:23:36;4.20;;;2.95;;
13847;SDS011;6994;49.752;6.094;2023-07-31T14:26:04;8.00;;;3.05;;
13847;SDS011;6994;49.752;6.094;2023-07-31T14:28:31;6.20;;;3.30;;
13847;SDS011;6994;49.752;6.094;2023-07-31T14:30:58;4.03;;;2.65;;
13847;SDS011;6994;49.752;6.094;2023-07-31T14:33:25;6.50;;;3.85;;
13847;SDS011;6994;49.752;6.094;2023-07-31T14:35:52;8.05;;;3.62;;
13847;SDS011;6994;49.752;6.094;2023-07-31T14:38:20;6.78;;;3.35;;
13847;SDS011;6994;49.752;6.094;2023-07-31T14:40:47;8.68;;;2.97;;
13847;SDS011;6994;49.752;6.094;2023-07-31T14:43:14;8.73;;;3.97;;
13847;SDS011;6994;49.752;6.094;2023-07-31T14:45:41;8.35;;;3.30;;
13847;SDS011;6994;49.752;6.094;2023-07-31T14:48:08;9.88;;;3.05;;
13847;SDS011;6994;49.752;6.094;2023-07-31T14:50:36;4.85;;;3.47;;
13847;SDS011;6994;49.752;6.094;2023-07-31T14:53:04;5.65;;;3.60;;
13847;SDS011;6994;49.752;6.094;2023-07-31T14:55:32;5.25;;;3.08;;
13847;SDS011;6994;49.752;6.094;2023-07-31T14:58:00;5.15;;;2.85;;
13847;SDS011;6994;49.752;6.094;2023-07-31T15:00:28;8.23;;;3.70;;
13847;SDS011;6994;49.752;6.094;2023-07-31T15:02:56;5.50;;;3.30;;
13847;SDS011;6994;49.752;6.094;2023-07-31T15:05:24;5.10;;;2.95;;
13847;SDS011;6994;49.752;6.094;2023-07-31T15:07:51;8.88;;;3.37;;
13847;SDS011;6994;49.752;6.094;2023-07-31T15:10:19;7.10;;;3.37;;
13847;SDS011;6994;49.752;6.094;2023-07-31T15:12:46;9.25;;;4.68;;
13847;SDS011;6994;49.752;6.094;2023-07-31T15:15:14;5.30;;;3.58;;
13847;SDS011;6994;49.752;6.094;2023-07-31T15:17:40;9.57;;;4.90;;
13847;SDS011;6994;49.752;6.094;2023-07-31T15:20:09;6.43;;;4.00;;